createdAt,value
2022-12-24T00:01:45.508Z,37.25
2022-12-24T00:03:45.308Z,33.50
2022-12-24T00:05:43.428Z,35.00
2022-12-24T00:07:41.506Z,31.42
2022-12-24T00:09:39.773Z,26.70
2022-12-24T00:11:37.956Z,22.45
2022-12-24T00:13:36.187Z,19.30
2022-12-24T00:15:34.312Z,19.45
2022-12-24T00:17:32.392Z,18.27
2022-12-24T00:19:32.190Z,18.58
2022-12-24T00:21:30.271Z,23.73
2022-12-24T00:23:27.515Z,19.08
2022-12-24T00:25:25.767Z,22.15
2022-12-24T00:27:23.950Z,24.05
2022-12-24T00:29:22.215Z,22.38
2022-12-24T00:31:20.665Z,18.73
2022-12-24T00:33:24.213Z,23.27
2022-12-24T00:35:24.443Z,18.60
2022-12-24T00:37:22.566Z,20.42
2022-12-24T00:39:20.782Z,16.25
2022-12-24T00:41:29.084Z,20.08
2022-12-24T00:43:27.500Z,20.25
2022-12-24T00:45:27.074Z,19.77
2022-12-24T00:47:25.208Z,19.58
2022-12-24T00:49:23.584Z,18.63
2022-12-24T00:51:23.942Z,21.30
2022-12-24T00:53:22.685Z,22.17
2022-12-24T00:55:20.861Z,20.88
2022-12-24T00:57:19.101Z,21.52
2022-12-24T00:59:17.420Z,21.20
2022-12-24T01:01:16.679Z,20.77
2022-12-24T01:03:15.785Z,23.00
2022-12-24T01:05:13.312Z,23.73
2022-12-24T01:07:12.985Z,22.77
2022-12-24T01:09:11.400Z,20.08
2022-12-24T01:11:10.572Z,21.13
2022-12-24T01:13:08.724Z,20.67
2022-12-24T01:15:07.951Z,23.60
2022-12-24T01:17:06.660Z,19.42
2022-12-24T01:19:04.958Z,19.92
2022-12-24T01:21:05.056Z,18.98
2022-12-24T01:23:04.557Z,17.08
2022-12-24T01:25:02.757Z,20.05
2022-12-24T01:27:00.981Z,25.98
2022-12-24T01:28:59.189Z,20.67
2022-12-24T01:30:57.463Z,20.52
2022-12-24T01:32:55.706Z,19.45
2022-12-24T01:34:53.952Z,20.98
2022-12-24T01:36:52.114Z,17.90
2022-12-24T01:38:51.712Z,20.45
2022-12-24T01:41:07.440Z,21.10
2022-12-24T01:43:24.538Z,18.10
2022-12-24T01:45:43.364Z,17.23
2022-12-24T01:47:41.851Z,14.00
2022-12-24T01:49:43.380Z,18.13
2022-12-24T01:51:46.336Z,18.98
2022-12-24T01:53:48.520Z,19.48
2022-12-24T01:55:49.051Z,16.77
2022-12-24T01:57:50.558Z,18.33
2022-12-24T01:59:53.505Z,15.95
2022-12-24T02:01:53.119Z,18.38
2022-12-24T02:03:51.958Z,17.23
2022-12-24T02:05:52.548Z,18.02
2022-12-24T02:07:51.246Z,19.27
2022-12-24T02:09:53.252Z,17.20
2022-12-24T02:11:53.671Z,18.88
2022-12-24T02:13:54.569Z,18.20
2022-12-24T02:16:05.037Z,15.60
2022-12-24T02:18:11.232Z,14.15
2022-12-24T02:20:37.510Z,16.10
2022-12-24T02:22:48.133Z,14.25
2022-12-24T02:25:17.067Z,14.07
2022-12-24T02:27:27.353Z,12.52
2022-12-24T02:29:52.172Z,14.10
2022-12-24T02:31:55.214Z,14.02
2022-12-24T02:34:00.722Z,13.65
2022-12-24T02:36:06.181Z,11.95
2022-12-24T02:38:09.149Z,15.15
2022-12-24T02:40:16.251Z,10.93
2022-12-24T02:42:18.674Z,10.90
2022-12-24T02:44:17.357Z,13.38
2022-12-24T02:46:21.015Z,14.77
2022-12-24T02:48:21.580Z,15.18
2022-12-24T02:50:20.317Z,11.85
2022-12-24T02:52:33.596Z,9.80
2022-12-24T02:54:32.306Z,15.20
2022-12-24T02:56:46.981Z,11.80
2022-12-24T02:58:59.643Z,11.43
2022-12-24T03:01:17.643Z,13.95
2022-12-24T03:03:34.884Z,15.52
2022-12-24T03:05:41.738Z,11.35
2022-12-24T03:07:46.280Z,14.07
2022-12-24T03:09:57.566Z,13.65
2022-12-24T03:12:02.000Z,14.27
2022-12-24T03:15:59.075Z,10.05
2022-12-24T03:18:01.644Z,14.85
2022-12-24T03:20:01.353Z,12.07
2022-12-24T03:22:03.564Z,12.18
2022-12-24T03:24:01.910Z,14.13
2022-12-24T03:26:02.753Z,16.88
2022-12-24T03:28:04.090Z,13.60
2022-12-24T03:30:03.654Z,15.13
2022-12-24T03:32:04.266Z,15.02
2022-12-24T03:34:02.606Z,15.05
2022-12-24T03:36:02.342Z,13.63
2022-12-24T03:38:00.546Z,12.68
2022-12-24T03:39:58.832Z,11.65
2022-12-24T03:41:56.955Z,14.35
2022-12-24T03:43:55.104Z,13.35
2022-12-24T03:45:53.308Z,14.15
2022-12-24T03:47:51.477Z,12.05
2022-12-24T03:49:49.745Z,11.60
2022-12-24T03:51:49.258Z,12.98
2022-12-24T03:53:47.573Z,14.00
2022-12-24T03:55:45.812Z,14.35
2022-12-24T03:57:43.930Z,14.23
2022-12-24T03:59:42.159Z,13.57
2022-12-24T04:01:40.746Z,10.93
2022-12-24T04:03:38.960Z,9.82
2022-12-24T04:05:37.225Z,10.85
2022-12-24T04:07:36.836Z,10.48
2022-12-24T04:09:35.252Z,13.02
2022-12-24T04:11:34.187Z,11.85
2022-12-24T04:13:32.775Z,10.40
2022-12-24T04:15:31.089Z,12.02
2022-12-24T04:17:29.305Z,12.75
2022-12-24T04:19:27.770Z,12.32
2022-12-24T04:21:25.982Z,10.82
2022-12-24T04:23:25.863Z,12.13
2022-12-24T04:25:24.150Z,12.20
2022-12-24T04:27:26.816Z,9.32
2022-12-24T04:29:28.423Z,10.57
2022-12-24T04:31:26.650Z,10.55
2022-12-24T04:33:24.830Z,10.93
2022-12-24T04:35:23.067Z,11.70
2022-12-24T04:37:21.289Z,10.77
2022-12-24T04:39:20.775Z,12.82
2022-12-24T04:41:24.307Z,10.40
2022-12-24T04:43:22.864Z,9.40
2022-12-24T04:45:21.219Z,7.95
2022-12-24T04:47:19.361Z,9.20
2022-12-24T04:49:17.323Z,11.82
2022-12-24T04:51:16.505Z,7.95
2022-12-24T04:53:15.304Z,9.05
2022-12-24T04:55:14.983Z,8.18
2022-12-24T04:57:13.127Z,10.73
2022-12-24T04:59:11.174Z,9.80
2022-12-24T05:01:13.842Z,10.05
2022-12-24T05:03:12.145Z,9.27
2022-12-24T05:05:10.946Z,9.40
2022-12-24T05:07:09.071Z,12.15
2022-12-24T05:09:07.158Z,13.18
2022-12-24T05:11:07.917Z,10.05
2022-12-24T05:13:06.234Z,9.55
2022-12-24T05:15:04.908Z,11.27
2022-12-24T05:17:03.111Z,15.30
2022-12-24T05:19:01.411Z,14.70
2022-12-24T05:20:59.718Z,13.80
2022-12-24T05:23:15.284Z,12.85
2022-12-24T05:25:31.270Z,10.85
2022-12-24T05:27:31.070Z,9.98
2022-12-24T05:29:29.381Z,12.07
2022-12-24T05:31:30.184Z,12.00
2022-12-24T05:33:28.373Z,13.38
2022-12-24T05:35:26.648Z,10.98
2022-12-24T05:37:24.920Z,13.85
2022-12-24T05:39:23.092Z,12.07
2022-12-24T05:41:21.417Z,13.55
2022-12-24T05:43:20.901Z,12.65
2022-12-24T05:45:19.119Z,11.18
2022-12-24T05:47:17.385Z,11.15
2022-12-24T05:49:16.166Z,13.52
2022-12-24T05:51:16.025Z,10.70
2022-12-24T05:53:14.268Z,11.60
2022-12-24T05:55:12.373Z,9.68
2022-12-24T05:57:10.763Z,13.38
2022-12-24T05:59:10.307Z,13.85
2022-12-24T06:01:09.385Z,11.70
2022-12-24T06:03:07.653Z,14.02
2022-12-24T06:05:06.901Z,12.02
2022-12-24T06:07:05.138Z,15.05
2022-12-24T06:09:03.374Z,11.65
2022-12-24T06:11:04.094Z,11.68
2022-12-24T06:13:02.352Z,11.50
2022-12-24T06:15:02.118Z,12.85
2022-12-24T06:17:00.447Z,15.25
2022-12-24T06:18:58.637Z,10.70
2022-12-24T06:20:58.339Z,12.00
2022-12-24T06:22:56.577Z,11.20
2022-12-24T06:24:54.692Z,15.20
2022-12-24T06:26:52.926Z,15.30
2022-12-24T06:28:51.970Z,15.07
2022-12-24T06:30:57.138Z,13.07
2022-12-24T06:32:58.695Z,12.38
2022-12-24T06:34:56.925Z,14.55
2022-12-24T06:36:55.191Z,13.57
2022-12-24T06:38:54.571Z,13.93
2022-12-24T06:40:52.834Z,12.38
2022-12-24T06:42:51.066Z,12.25
2022-12-24T06:44:49.349Z,13.38
2022-12-24T06:46:49.022Z,13.45
2022-12-24T06:48:47.674Z,12.15
2022-12-24T06:50:45.768Z,14.15
2022-12-24T06:52:44.055Z,12.30
2022-12-24T06:54:42.229Z,11.48
2022-12-24T06:56:40.386Z,16.80
2022-12-24T06:58:39.063Z,13.95
2022-12-24T07:00:37.533Z,12.15
2022-12-24T07:02:37.173Z,14.25
2022-12-24T07:04:35.551Z,14.85
2022-12-24T07:06:33.732Z,12.90
2022-12-24T07:08:33.740Z,15.52
2022-12-24T07:10:31.884Z,17.17
2022-12-24T07:12:30.119Z,18.27
2022-12-24T07:14:28.361Z,14.60
2022-12-24T07:16:26.582Z,14.40
2022-12-24T07:18:26.491Z,17.33
2022-12-24T07:20:24.650Z,17.35
2022-12-24T07:22:23.075Z,18.95
2022-12-24T07:24:21.727Z,20.98
2022-12-24T07:26:19.834Z,17.67
2022-12-24T07:28:21.053Z,15.55
2022-12-24T07:30:23.859Z,17.05
2022-12-24T07:32:22.149Z,15.25
2022-12-24T07:34:21.786Z,15.73
2022-12-24T07:36:22.100Z,15.98
2022-12-24T07:38:20.417Z,19.63
2022-12-24T07:40:18.705Z,19.60
2022-12-24T07:42:17.145Z,17.38
2022-12-24T07:44:16.334Z,18.65
2022-12-24T07:46:14.738Z,20.33
2022-12-24T07:48:13.030Z,20.23
2022-12-24T07:50:13.268Z,22.58
2022-12-24T07:52:11.551Z,22.58
2022-12-24T07:54:09.704Z,19.05
2022-12-24T07:56:12.655Z,19.73
2022-12-24T07:58:11.475Z,20.85
2022-12-24T08:00:10.815Z,19.42
2022-12-24T08:02:18.095Z,22.23
2022-12-24T08:04:16.985Z,20.65
2022-12-24T08:06:16.564Z,20.75
2022-12-24T08:08:15.118Z,20.10
2022-12-24T08:10:13.519Z,17.42
2022-12-24T08:12:11.582Z,16.92
2022-12-24T08:14:09.932Z,17.77
2022-12-24T08:16:08.916Z,18.52
2022-12-24T08:18:07.320Z,17.63
2022-12-24T08:20:06.694Z,16.50
2022-12-24T08:22:06.305Z,15.10
2022-12-24T08:24:04.809Z,21.75
2022-12-24T08:26:03.065Z,16.60
2022-12-24T08:28:01.330Z,20.88
2022-12-24T08:29:59.588Z,20.30
2022-12-24T08:31:57.785Z,18.73
2022-12-24T08:33:56.149Z,18.35
2022-12-24T08:35:55.911Z,19.17
2022-12-24T08:37:55.621Z,16.45
2022-12-24T08:39:53.831Z,18.02
2022-12-24T08:41:52.399Z,15.80
2022-12-24T08:43:50.652Z,17.88
2022-12-24T08:45:50.337Z,16.25
2022-12-24T08:47:48.791Z,16.17
2022-12-24T08:49:46.936Z,16.42
2022-12-24T08:51:45.102Z,18.35
2022-12-24T08:53:44.725Z,15.50
2022-12-24T08:55:43.051Z,14.68
2022-12-24T08:57:41.188Z,18.23
2022-12-24T08:59:39.420Z,17.23
2022-12-24T09:01:37.839Z,15.35
2022-12-24T09:03:36.116Z,16.27
2022-12-24T09:05:34.439Z,16.25
2022-12-24T09:07:32.539Z,16.92
2022-12-24T09:09:37.722Z,16.30
2022-12-24T09:11:36.749Z,15.93
2022-12-24T09:13:35.724Z,14.57
2022-12-24T09:15:33.868Z,19.23
2022-12-24T09:17:31.996Z,17.20
2022-12-24T09:19:30.420Z,14.95
2022-12-24T09:21:28.646Z,19.50
2022-12-24T09:23:26.919Z,18.13
2022-12-24T09:25:26.432Z,17.27
2022-12-24T09:27:24.597Z,16.38
2022-12-24T09:29:22.977Z,22.50
2022-12-24T09:31:21.916Z,18.48
2022-12-24T09:33:20.236Z,16.50
2022-12-24T09:35:18.529Z,16.70
2022-12-24T09:37:16.769Z,15.85
2022-12-24T09:39:15.779Z,17.40
2022-12-24T09:41:25.969Z,18.35
2022-12-24T09:43:25.989Z,16.38
2022-12-24T09:45:30.387Z,17.67
2022-12-24T09:47:34.516Z,17.52
2022-12-24T09:49:40.688Z,16.80
2022-12-24T09:51:43.507Z,15.93
2022-12-24T09:53:49.720Z,14.52
2022-12-24T09:55:51.658Z,18.33
2022-12-24T09:57:54.114Z,17.20
2022-12-24T09:59:52.984Z,15.55
2022-12-24T10:01:53.752Z,15.85
2022-12-24T10:03:52.180Z,12.55
2022-12-24T10:06:02.541Z,11.63
2022-12-24T10:08:09.775Z,9.50
2022-12-24T10:10:19.946Z,11.77
2022-12-24T10:12:23.548Z,12.43
2022-12-24T10:14:31.540Z,13.18
2022-12-24T10:16:37.877Z,8.88
2022-12-24T10:18:49.420Z,11.20
2022-12-24T10:20:55.232Z,10.90
2022-12-24T10:23:02.771Z,9.27
2022-12-24T10:25:10.982Z,11.88
2022-12-24T10:27:15.960Z,9.38
2022-12-24T10:29:19.098Z,12.93
2022-12-24T10:31:22.106Z,12.25
2022-12-24T10:33:28.012Z,15.50
2022-12-24T10:35:30.288Z,13.15
2022-12-24T10:37:30.646Z,14.57
2022-12-24T10:39:28.989Z,14.55
2022-12-24T10:41:29.454Z,14.60
2022-12-24T10:43:31.209Z,13.15
2022-12-24T10:45:37.615Z,13.75
2022-12-24T10:47:40.365Z,11.40
2022-12-24T10:49:45.932Z,14.10
2022-12-24T10:51:49.770Z,12.98
2022-12-24T10:53:52.955Z,12.77
2022-12-24T10:55:51.150Z,13.27
2022-12-24T10:58:01.258Z,15.73
2022-12-24T10:59:59.970Z,13.55
2022-12-24T11:01:59.973Z,13.82
2022-12-24T11:04:04.352Z,14.02
2022-12-24T11:08:21.376Z,14.43
2022-12-24T11:10:25.664Z,15.93
2022-12-24T11:12:27.068Z,15.80
2022-12-24T11:14:26.749Z,15.88
2022-12-24T11:16:29.728Z,13.63
2022-12-24T11:18:28.596Z,15.23
2022-12-24T11:20:29.734Z,14.30
2022-12-24T11:22:30.422Z,16.95
2022-12-24T11:24:31.832Z,15.80
2022-12-24T11:26:32.001Z,15.90
2022-12-24T11:28:32.375Z,13.95
2022-12-24T11:30:32.211Z,15.25
2022-12-24T11:32:30.493Z,15.73
2022-12-24T11:34:30.302Z,16.70
2022-12-24T11:36:31.986Z,14.77
2022-12-24T11:38:31.884Z,13.60
2022-12-24T11:40:35.684Z,12.65
2022-12-24T11:42:43.146Z,11.90
2022-12-24T11:44:49.595Z,12.85
2022-12-24T11:46:52.448Z,11.65
2022-12-24T11:49:08.200Z,10.60
2022-12-24T11:51:08.700Z,8.73
2022-12-24T11:53:16.390Z,9.07
2022-12-24T11:55:20.681Z,8.57
2022-12-24T11:57:25.161Z,8.60
2022-12-24T12:01:29.704Z,8.75
2022-12-24T12:03:35.804Z,9.57
2022-12-24T12:05:36.869Z,10.50
2022-12-24T12:07:38.338Z,10.10
2022-12-24T12:09:42.302Z,10.15
2022-12-24T12:11:43.645Z,28.40
2022-12-24T12:13:47.097Z,11.65
2022-12-24T12:15:50.410Z,9.15
2022-12-24T12:17:54.147Z,9.27
2022-12-24T12:19:59.265Z,10.05
2022-12-24T12:21:57.519Z,8.05
2022-12-24T12:24:00.296Z,9.93
2022-12-24T12:26:03.435Z,9.35
2022-12-24T12:28:04.529Z,7.82
2022-12-24T12:30:08.108Z,9.13
2022-12-24T12:32:12.179Z,8.40
2022-12-24T12:34:14.976Z,10.55
2022-12-24T12:36:17.213Z,11.30
2022-12-24T12:38:21.461Z,13.18
2022-12-24T12:40:19.966Z,11.07
2022-12-24T12:42:30.789Z,10.70
2022-12-24T12:44:46.825Z,10.10
2022-12-24T12:46:59.914Z,11.23
2022-12-24T12:49:14.051Z,10.57
2022-12-24T12:51:18.962Z,13.13
2022-12-24T12:53:36.327Z,10.43
2022-12-24T12:55:47.222Z,15.75
2022-12-24T12:57:48.364Z,13.18
2022-12-24T12:59:54.315Z,14.63
2022-12-24T13:02:02.336Z,13.07
2022-12-24T13:04:23.047Z,15.95
2022-12-24T13:06:47.487Z,12.32
2022-12-24T13:09:15.059Z,12.70
2022-12-24T13:11:45.379Z,11.35
2022-12-24T13:14:19.481Z,11.07
2022-12-24T13:16:45.268Z,12.43
2022-12-24T13:18:56.669Z,13.27
2022-12-24T13:20:55.814Z,14.85
2022-12-24T13:22:59.474Z,16.58
2022-12-24T13:24:58.370Z,16.45
2022-12-24T13:27:05.148Z,13.88
2022-12-24T13:29:33.305Z,14.15
2022-12-24T13:31:31.345Z,14.35
2022-12-24T13:33:48.028Z,14.88
2022-12-24T13:36:02.294Z,18.65
2022-12-24T13:38:43.596Z,18.40
2022-12-24T13:40:41.939Z,16.00
2022-12-24T13:42:51.648Z,13.63
2022-12-24T13:45:37.982Z,13.93
2022-12-24T13:47:36.328Z,16.95
2022-12-24T13:49:37.489Z,20.02
2022-12-24T13:51:35.575Z,18.35
2022-12-24T13:53:40.103Z,20.25
2022-12-24T13:55:38.450Z,21.70
2022-12-24T13:57:41.617Z,23.33
2022-12-24T13:59:40.719Z,15.07
2022-12-24T14:01:43.622Z,15.63
2022-12-24T14:03:45.851Z,17.50
2022-12-24T14:05:49.142Z,16.30
2022-12-24T14:07:50.386Z,15.68
2022-12-24T14:09:51.061Z,16.58
2022-12-24T14:12:31.469Z,15.85
2022-12-24T14:14:32.373Z,14.90
2022-12-24T14:16:33.059Z,16.45
2022-12-24T14:18:35.837Z,17.85
2022-12-24T14:20:34.705Z,15.95
2022-12-24T14:22:37.461Z,15.55
2022-12-24T14:24:37.337Z,17.20
2022-12-24T14:26:44.799Z,16.67
2022-12-24T14:28:47.756Z,13.80
2022-12-24T14:30:45.976Z,17.02
2022-12-24T14:32:44.126Z,18.75
2022-12-24T14:34:44.178Z,18.77
2022-12-24T14:36:45.511Z,21.00
2022-12-24T14:38:45.778Z,19.20
2022-12-24T14:40:54.835Z,20.65
2022-12-24T14:43:00.728Z,19.45
2022-12-24T14:45:08.461Z,21.30
2022-12-24T14:47:22.084Z,22.40
2022-12-24T14:49:33.604Z,20.58
2022-12-24T14:51:41.182Z,18.05
2022-12-24T14:53:56.228Z,20.10
2022-12-24T14:55:54.478Z,18.17
2022-12-24T14:58:12.691Z,21.80
2022-12-24T15:00:21.637Z,19.45
2022-12-24T15:02:43.359Z,19.08
2022-12-24T15:04:41.639Z,15.52
2022-12-24T15:06:43.275Z,11.52
2022-12-24T15:08:46.992Z,10.63
2022-12-24T15:10:48.199Z,9.35
2022-12-24T15:12:46.397Z,7.43
2022-12-24T15:14:46.967Z,7.28
2022-12-24T15:16:54.627Z,5.95
2022-12-24T15:18:56.300Z,4.97
2022-12-24T15:21:03.726Z,5.25
2022-12-24T15:23:03.922Z,3.40
2022-12-24T15:25:02.248Z,4.05
2022-12-24T15:27:02.931Z,2.55
2022-12-24T15:29:03.952Z,2.65
2022-12-24T15:31:08.852Z,2.90
2022-12-24T15:33:07.247Z,1.63
2022-12-24T15:35:08.267Z,2.40
2022-12-24T15:37:12.082Z,0.82
2022-12-24T15:39:17.859Z,1.75
2022-12-24T15:41:22.102Z,2.15
2022-12-24T15:43:20.873Z,2.10
2022-12-24T15:45:27.647Z,2.13
2022-12-24T15:47:37.663Z,1.25
2022-12-24T15:49:36.963Z,1.38
2022-12-24T15:51:40.416Z,2.00
2022-12-24T15:53:44.936Z,13.75
2022-12-24T15:55:47.265Z,55.38
2022-12-24T15:57:45.360Z,26.52
2022-12-24T15:59:43.633Z,10.88
2022-12-24T16:01:42.487Z,19.40
2022-12-24T16:03:42.194Z,9.27
2022-12-24T16:05:40.795Z,11.30
2022-12-24T16:07:56.256Z,5.15
2022-12-24T16:10:14.403Z,2.42
2022-12-24T16:12:21.371Z,2.38
2022-12-24T16:14:21.009Z,2.45
2022-12-24T16:16:22.585Z,1.85
2022-12-24T16:18:26.073Z,2.30
2022-12-24T16:20:24.370Z,2.40
2022-12-24T16:22:33.255Z,2.67
2022-12-24T16:24:32.729Z,2.17
2022-12-24T16:26:30.948Z,1.75
2022-12-24T16:28:30.500Z,2.67
2022-12-24T16:30:29.168Z,2.72
2022-12-24T16:32:33.634Z,2.40
2022-12-24T16:34:33.648Z,2.15
2022-12-24T16:36:32.664Z,2.05
2022-12-24T16:38:51.951Z,2.35
2022-12-24T16:40:50.366Z,1.70
2022-12-24T16:43:06.240Z,2.17
2022-12-24T16:45:07.468Z,1.58
2022-12-24T16:47:07.788Z,3.17
2022-12-24T16:49:06.078Z,2.67
2022-12-24T16:51:04.494Z,3.75
2022-12-24T16:53:03.100Z,4.05
2022-12-24T16:55:02.355Z,3.92
2022-12-24T16:57:00.531Z,4.03
2022-12-24T16:58:58.973Z,1.95
2022-12-24T17:00:59.880Z,3.20
2022-12-24T17:02:58.375Z,2.25
2022-12-24T17:04:56.616Z,3.40
2022-12-24T17:06:55.142Z,2.60
2022-12-24T17:08:53.415Z,3.10
2022-12-24T17:10:52.421Z,2.67
2022-12-24T17:12:50.765Z,2.95
2022-12-24T17:14:49.377Z,2.85
2022-12-24T17:16:49.417Z,2.33
2022-12-24T17:18:48.006Z,2.45
2022-12-24T17:20:46.485Z,4.10
2022-12-24T17:22:45.221Z,1.17
2022-12-24T17:24:44.202Z,3.90
2022-12-24T17:26:43.591Z,2.83
2022-12-24T17:28:42.440Z,1.40
2022-12-24T17:30:41.414Z,1.80
2022-12-24T17:32:41.819Z,0.88
2022-12-24T17:34:40.712Z,1.50
2022-12-24T17:36:39.352Z,0.93
2022-12-24T17:38:38.251Z,1.33
2022-12-24T17:40:36.730Z,1.05
2022-12-24T17:42:37.828Z,1.40
2022-12-24T17:44:36.433Z,1.55
2022-12-24T17:46:35.074Z,2.35
2022-12-24T17:48:35.117Z,1.38
2022-12-24T17:50:33.727Z,2.42
2022-12-24T17:52:32.059Z,2.25
2022-12-24T17:54:30.887Z,5.50
2022-12-24T17:56:29.644Z,3.17
2022-12-24T17:58:28.821Z,3.50
2022-12-24T18:00:32.749Z,2.40
2022-12-24T18:04:31.184Z,2.25
2022-12-24T18:06:29.475Z,1.98
2022-12-24T18:08:27.554Z,2.08
2022-12-24T18:10:25.874Z,1.65
2022-12-24T18:12:24.006Z,1.13
2022-12-24T18:14:22.131Z,2.20
2022-12-24T18:16:22.387Z,2.60
2022-12-24T18:18:20.785Z,2.67
2022-12-24T18:20:20.837Z,3.75
2022-12-24T18:22:19.145Z,2.25
2022-12-24T18:24:17.408Z,1.65
2022-12-24T18:26:16.844Z,1.85
2022-12-24T18:28:15.029Z,2.60
2022-12-24T18:30:13.846Z,2.53
2022-12-24T18:32:12.961Z,2.35
2022-12-24T18:34:13.984Z,2.17
2022-12-24T18:36:14.361Z,2.45
2022-12-24T18:38:12.511Z,4.82
2022-12-24T18:40:11.470Z,1.88
2022-12-24T18:42:14.467Z,2.17
2022-12-24T18:44:12.757Z,3.28
2022-12-24T18:46:13.243Z,3.63
2022-12-24T18:48:12.132Z,1.92
2022-12-24T18:50:10.712Z,2.45
2022-12-24T18:52:12.205Z,1.10
2022-12-24T18:54:11.386Z,1.48
2022-12-24T18:56:12.777Z,1.90
2022-12-24T18:58:10.950Z,2.97
2022-12-24T19:00:10.629Z,1.92
2022-12-24T19:02:08.868Z,2.90
2022-12-24T19:04:07.016Z,7.32
2022-12-24T19:06:06.069Z,4.70
2022-12-24T19:08:22.200Z,8.98
2022-12-24T19:10:24.896Z,8.55
2022-12-24T19:12:23.110Z,2.40
2022-12-24T19:14:21.395Z,1.67
2022-12-24T19:16:21.446Z,1.10
2022-12-24T19:18:19.963Z,1.23
2022-12-24T19:20:18.161Z,1.40
2022-12-24T19:22:16.330Z,1.02
2022-12-24T19:24:16.056Z,1.52
2022-12-24T19:26:15.986Z,1.42
2022-12-24T19:28:14.214Z,0.47
2022-12-24T19:30:13.633Z,1.10
2022-12-24T19:32:11.978Z,0.75
2022-12-24T19:34:10.341Z,1.40
2022-12-24T19:36:09.978Z,0.90
2022-12-24T19:38:08.159Z,0.77
2022-12-24T19:40:09.956Z,1.20
2022-12-24T19:42:08.367Z,0.88
2022-12-24T19:44:06.850Z,0.75
2022-12-24T19:46:05.195Z,1.10
2022-12-24T19:48:03.600Z,0.55
2022-12-24T19:50:01.799Z,1.50
2022-12-24T19:51:59.921Z,1.95
2022-12-24T19:54:00.150Z,1.63
2022-12-24T19:56:00.072Z,1.38
2022-12-24T19:57:58.404Z,1.52
2022-12-24T19:59:56.632Z,1.42
2022-12-24T20:01:56.246Z,2.05
2022-12-24T20:03:55.689Z,1.40
2022-12-24T20:05:55.711Z,1.85
2022-12-24T20:07:53.823Z,1.50
2022-12-24T20:09:52.185Z,1.75
2022-12-24T20:11:52.563Z,2.17
2022-12-24T20:13:50.632Z,1.52
2022-12-24T20:15:48.983Z,2.55
2022-12-24T20:17:52.113Z,2.05
2022-12-24T20:19:50.209Z,4.72
2022-12-24T20:21:48.501Z,9.60
2022-12-24T20:23:46.842Z,7.20
2022-12-24T20:25:45.078Z,4.50
2022-12-24T20:27:44.626Z,3.33
2022-12-24T20:29:42.894Z,2.67
2022-12-24T20:31:41.472Z,3.65
2022-12-24T20:33:40.043Z,3.95
2022-12-24T20:35:38.218Z,4.40
2022-12-24T20:37:43.726Z,4.82
2022-12-24T20:39:44.651Z,4.55
2022-12-24T20:41:42.896Z,3.75
2022-12-24T20:43:48.258Z,4.15
2022-12-24T20:45:50.419Z,3.22
2022-12-24T20:47:48.711Z,2.85
2022-12-24T20:49:46.845Z,4.32
2022-12-24T20:51:44.990Z,2.92
2022-12-24T20:53:46.273Z,3.00
2022-12-24T20:55:44.699Z,4.00
2022-12-24T20:57:43.018Z,3.53
2022-12-24T20:59:42.574Z,2.92
2022-12-24T21:01:41.741Z,2.60
2022-12-24T21:03:40.127Z,1.70
2022-12-24T21:05:41.102Z,3.67
2022-12-24T21:07:40.778Z,14.00
2022-12-24T21:09:38.963Z,7.85
2022-12-24T21:11:55.027Z,3.00
2022-12-24T21:13:53.213Z,9.63
2022-12-24T21:15:52.881Z,5.45
2022-12-24T21:17:51.541Z,2.90
2022-12-24T21:19:49.813Z,3.20
2022-12-24T21:21:48.362Z,2.33
2022-12-24T21:23:46.508Z,3.72
2022-12-24T21:25:57.689Z,2.17
2022-12-24T21:27:56.406Z,2.85
2022-12-24T21:29:54.603Z,3.20
2022-12-24T21:31:54.371Z,3.45
2022-12-24T21:33:52.534Z,3.05
2022-12-24T21:35:50.992Z,4.07
2022-12-24T21:37:49.128Z,2.13
2022-12-24T21:39:48.022Z,3.03
2022-12-24T21:41:46.203Z,2.55
2022-12-24T21:43:45.160Z,3.00
2022-12-24T21:45:43.345Z,3.90
2022-12-24T21:47:44.777Z,4.03
2022-12-24T21:50:00.590Z,4.00
2022-12-24T21:51:59.960Z,2.80
2022-12-24T21:54:15.845Z,5.40
2022-12-24T21:56:14.038Z,3.45
2022-12-24T21:58:11.419Z,2.58
2022-12-24T22:00:26.927Z,4.45
2022-12-24T22:02:27.797Z,5.85
2022-12-24T22:04:27.916Z,3.35
2022-12-24T22:06:43.460Z,3.22
2022-12-24T22:08:59.266Z,2.03
2022-12-24T22:11:30.365Z,0.95
2022-12-24T22:13:31.405Z,1.45
2022-12-24T22:15:30.468Z,3.08
2022-12-24T22:17:29.350Z,2.42
2022-12-24T22:19:29.991Z,1.45
2022-12-24T22:21:28.123Z,1.85
2022-12-24T22:23:26.734Z,1.15
2022-12-24T22:25:24.852Z,1.52
2022-12-24T22:27:23.990Z,1.73
2022-12-24T22:29:22.233Z,1.35
2022-12-24T22:31:21.802Z,2.45
2022-12-24T22:33:20.022Z,1.15
2022-12-24T22:35:20.946Z,1.33
2022-12-24T22:37:19.232Z,0.93
2022-12-24T22:39:17.600Z,0.57
2022-12-24T22:41:15.998Z,1.27
2022-12-24T22:43:14.328Z,1.92
2022-12-24T22:45:19.974Z,0.98
2022-12-24T22:47:20.423Z,1.10
2022-12-24T22:49:18.771Z,1.73
2022-12-24T22:51:20.578Z,2.33
2022-12-24T22:53:18.717Z,2.00
2022-12-24T22:55:17.123Z,0.85
2022-12-24T22:57:15.437Z,1.73
2022-12-24T22:59:14.437Z,1.15
2022-12-24T23:01:13.221Z,1.33
2022-12-24T23:03:12.234Z,0.80
2022-12-24T23:05:14.615Z,1.70
2022-12-24T23:07:14.618Z,1.67
2022-12-24T23:09:15.837Z,1.38
2022-12-24T23:11:15.721Z,1.30
2022-12-24T23:13:31.714Z,1.48
2022-12-24T23:15:29.976Z,2.20
2022-12-24T23:17:28.157Z,1.63
2022-12-24T23:19:26.356Z,1.40
2022-12-24T23:21:25.290Z,0.68
2022-12-24T23:23:24.983Z,1.08
2022-12-24T23:25:23.473Z,1.25
2022-12-24T23:27:23.955Z,0.50
2022-12-24T23:29:22.108Z,0.70
2022-12-24T23:31:21.561Z,0.95
2022-12-24T23:33:19.673Z,0.57
2022-12-24T23:35:18.068Z,0.85
2022-12-24T23:37:16.319Z,1.15
2022-12-24T23:39:15.818Z,0.52
2022-12-24T23:41:14.262Z,0.95
2022-12-24T23:43:12.467Z,0.80
2022-12-24T23:45:11.349Z,1.25
2022-12-24T23:47:09.541Z,0.52
2022-12-24T23:49:07.621Z,0.73
2022-12-24T23:51:07.515Z,1.20
2022-12-24T23:53:05.660Z,1.65
2022-12-24T23:55:06.975Z,0.77
2022-12-24T23:57:05.263Z,1.00
2022-12-24T23:59:03.945Z,0.75
